sensor_id;sensor_type;location;lat;lon;timestamp;P1;durP1;ratioP1;P2;durP2;ratioP2
22881;SDS011;11608;50.894;5.296;2023-05-07T00:00:24;29.48;;;27.27;;
22881;SDS011;11608;50.894;5.296;2023-05-07T00:02:50;29.08;;;27.02;;
22881;SDS011;11608;50.894;5.296;2023-05-07T00:05:17;28.48;;;26.48;;
22881;SDS011;11608;50.894;5.296;2023-05-07T00:07:43;28.95;;;26.75;;
22881;SDS011;11608;50.894;5.296;2023-05-07T00:10:10;28.27;;;26.25;;
22881;SDS011;11608;50.894;5.296;2023-05-07T00:12:37;29.10;;;26.95;;
22881;SDS011;11608;50.894;5.296;2023-05-07T00:15:03;29.13;;;26.88;;
22881;SDS011;11608;50.894;5.296;2023-05-07T00:17:30;28.35;;;26.40;;
22881;SDS011;11608;50.894;5.296;2023-05-07T00:19:56;28.52;;;26.33;;
22881;SDS011;11608;50.894;5.296;2023-05-07T00:22:25;29.33;;;27.13;;
22881;SDS011;11608;50.894;5.296;2023-05-07T00:24:51;29.30;;;27.00;;
22881;SDS011;11608;50.894;5.296;2023-05-07T00:27:17;28.63;;;26.63;;
22881;SDS011;11608;50.894;5.296;2023-05-07T00:29:43;28.65;;;26.65;;
22881;SDS011;11608;50.894;5.296;2023-05-07T00:32:09;28.88;;;26.73;;
22881;SDS011;11608;50.894;5.296;2023-05-07T00:34:35;30.02;;;27.55;;
22881;SDS011;11608;50.894;5.296;2023-05-07T00:37:01;29.42;;;27.10;;
22881;SDS011;11608;50.894;5.296;2023-05-07T00:39:27;30.42;;;27.80;;
22881;SDS011;11608;50.894;5.296;2023-05-07T00:41:53;29.17;;;26.98;;
22881;SDS011;11608;50.894;5.296;2023-05-07T00:44:22;29.80;;;27.60;;
22881;SDS011;11608;50.894;5.296;2023-05-07T00:46:51;30.33;;;28.02;;
22881;SDS011;11608;50.894;5.296;2023-05-07T00:49:17;30.05;;;27.80;;
22881;SDS011;11608;50.894;5.296;2023-05-07T00:51:44;30.45;;;28.17;;
22881;SDS011;11608;50.894;5.296;2023-05-07T00:54:10;30.30;;;28.02;;
22881;SDS011;11608;50.894;5.296;2023-05-07T00:56:36;29.90;;;27.60;;
22881;SDS011;11608;50.894;5.296;2023-05-07T00:59:04;29.27;;;27.10;;
22881;SDS011;11608;50.894;5.296;2023-05-07T01:01:30;28.80;;;26.60;;
22881;SDS011;11608;50.894;5.296;2023-05-07T01:03:57;28.02;;;26.10;;
22881;SDS011;11608;50.894;5.296;2023-05-07T01:06:23;28.00;;;26.08;;
22881;SDS011;11608;50.894;5.296;2023-05-07T01:08:52;28.90;;;26.75;;
22881;SDS011;11608;50.894;5.296;2023-05-07T01:11:21;29.50;;;27.33;;
22881;SDS011;11608;50.894;5.296;2023-05-07T01:13:48;28.20;;;26.20;;
22881;SDS011;11608;50.894;5.296;2023-05-07T01:16:15;29.15;;;26.83;;
22881;SDS011;11608;50.894;5.296;2023-05-07T01:18:41;29.75;;;27.55;;
22881;SDS011;11608;50.894;5.296;2023-05-07T01:21:07;30.10;;;27.75;;
22881;SDS011;11608;50.894;5.296;2023-05-07T01:23:37;29.33;;;27.13;;
22881;SDS011;11608;50.894;5.296;2023-05-07T01:26:04;29.52;;;27.30;;
22881;SDS011;11608;50.894;5.296;2023-05-07T01:28:33;29.83;;;27.27;;
22881;SDS011;11608;50.894;5.296;2023-05-07T01:31:03;29.30;;;27.10;;
22881;SDS011;11608;50.894;5.296;2023-05-07T01:33:31;29.50;;;27.20;;
22881;SDS011;11608;50.894;5.296;2023-05-07T01:35:59;30.35;;;27.83;;
22881;SDS011;11608;50.894;5.296;2023-05-07T01:38:27;30.63;;;28.17;;
22881;SDS011;11608;50.894;5.296;2023-05-07T01:40:53;30.70;;;28.30;;
22881;SDS011;11608;50.894;5.296;2023-05-07T01:43:19;30.35;;;28.00;;
22881;SDS011;11608;50.894;5.296;2023-05-07T01:45:46;30.17;;;27.98;;
22881;SDS011;11608;50.894;5.296;2023-05-07T01:48:17;29.92;;;27.73;;
22881;SDS011;11608;50.894;5.296;2023-05-07T01:50:43;29.83;;;27.42;;
22881;SDS011;11608;50.894;5.296;2023-05-07T01:53:10;28.77;;;26.67;;
22881;SDS011;11608;50.894;5.296;2023-05-07T01:55:36;30.45;;;27.92;;
22881;SDS011;11608;50.894;5.296;2023-05-07T01:58:02;29.30;;;27.00;;
22881;SDS011;11608;50.894;5.296;2023-05-07T02:00:28;29.83;;;27.63;;
22881;SDS011;11608;50.894;5.296;2023-05-07T02:02:54;29.45;;;27.15;;
22881;SDS011;11608;50.894;5.296;2023-05-07T02:05:22;29.90;;;27.65;;
22881;SDS011;11608;50.894;5.296;2023-05-07T02:07:48;29.48;;;27.05;;
22881;SDS011;11608;50.894;5.296;2023-05-07T02:10:15;30.17;;;27.98;;
22881;SDS011;11608;50.894;5.296;2023-05-07T02:12:41;30.80;;;28.33;;
22881;SDS011;11608;50.894;5.296;2023-05-07T02:15:07;29.50;;;27.40;;
22881;SDS011;11608;50.894;5.296;2023-05-07T02:17:34;29.33;;;27.02;;
22881;SDS011;11608;50.894;5.296;2023-05-07T02:20:01;31.02;;;28.73;;
22881;SDS011;11608;50.894;5.296;2023-05-07T02:22:28;30.02;;;27.63;;
22881;SDS011;11608;50.894;5.296;2023-05-07T02:24:55;30.73;;;28.33;;
22881;SDS011;11608;50.894;5.296;2023-05-07T02:27:21;31.67;;;29.00;;
22881;SDS011;11608;50.894;5.296;2023-05-07T02:29:47;30.88;;;28.45;;
22881;SDS011;11608;50.894;5.296;2023-05-07T02:32:13;31.15;;;28.75;;
22881;SDS011;11608;50.894;5.296;2023-05-07T02:34:39;31.27;;;28.77;;
22881;SDS011;11608;50.894;5.296;2023-05-07T02:37:05;32.25;;;29.80;;
22881;SDS011;11608;50.894;5.296;2023-05-07T02:39:31;32.70;;;30.20;;
22881;SDS011;11608;50.894;5.296;2023-05-07T02:41:57;30.98;;;28.67;;
22881;SDS011;11608;50.894;5.296;2023-05-07T02:44:23;31.88;;;29.50;;
22881;SDS011;11608;50.894;5.296;2023-05-07T02:46:49;32.55;;;29.95;;
22881;SDS011;11608;50.894;5.296;2023-05-07T02:49:16;31.38;;;28.88;;
22881;SDS011;11608;50.894;5.296;2023-05-07T02:51:42;32.20;;;29.60;;
22881;SDS011;11608;50.894;5.296;2023-05-07T02:54:08;31.65;;;29.17;;
22881;SDS011;11608;50.894;5.296;2023-05-07T02:56:34;31.17;;;28.67;;
22881;SDS011;11608;50.894;5.296;2023-05-07T02:59:00;30.38;;;28.13;;
22881;SDS011;11608;50.894;5.296;2023-05-07T03:01:26;31.92;;;29.25;;
22881;SDS011;11608;50.894;5.296;2023-05-07T03:03:52;31.70;;;29.38;;
22881;SDS011;11608;50.894;5.296;2023-05-07T03:06:18;31.17;;;28.85;;
22881;SDS011;11608;50.894;5.296;2023-05-07T03:08:44;31.23;;;28.83;;
22881;SDS011;11608;50.894;5.296;2023-05-07T03:11:10;32.03;;;29.45;;
22881;SDS011;11608;50.894;5.296;2023-05-07T03:13:36;31.58;;;29.10;;
22881;SDS011;11608;50.894;5.296;2023-05-07T03:16:02;31.67;;;29.10;;
22881;SDS011;11608;50.894;5.296;2023-05-07T03:18:34;30.98;;;28.58;;
22881;SDS011;11608;50.894;5.296;2023-05-07T03:21:00;31.40;;;29.00;;
22881;SDS011;11608;50.894;5.296;2023-05-07T03:23:26;31.08;;;28.40;;
22881;SDS011;11608;50.894;5.296;2023-05-07T03:25:52;31.77;;;29.33;;
22881;SDS011;11608;50.894;5.296;2023-05-07T03:28:18;31.42;;;29.13;;
22881;SDS011;11608;50.894;5.296;2023-05-07T03:30:44;31.27;;;28.98;;
22881;SDS011;11608;50.894;5.296;2023-05-07T03:33:11;32.10;;;29.70;;
22881;SDS011;11608;50.894;5.296;2023-05-07T03:35:37;30.92;;;28.52;;
22881;SDS011;11608;50.894;5.296;2023-05-07T03:38:03;32.58;;;30.00;;
22881;SDS011;11608;50.894;5.296;2023-05-07T03:40:29;31.98;;;29.55;;
22881;SDS011;11608;50.894;5.296;2023-05-07T03:42:58;31.50;;;29.10;;
22881;SDS011;11608;50.894;5.296;2023-05-07T03:45:25;32.10;;;29.67;;
22881;SDS011;11608;50.894;5.296;2023-05-07T03:47:51;31.48;;;29.08;;
22881;SDS011;11608;50.894;5.296;2023-05-07T03:50:17;33.17;;;30.35;;
22881;SDS011;11608;50.894;5.296;2023-05-07T03:52:43;32.42;;;29.73;;
22881;SDS011;11608;50.894;5.296;2023-05-07T03:55:10;31.60;;;28.98;;
22881;SDS011;11608;50.894;5.296;2023-05-07T03:57:36;32.40;;;29.90;;
22881;SDS011;11608;50.894;5.296;2023-05-07T04:00:02;32.33;;;29.83;;
22881;SDS011;11608;50.894;5.296;2023-05-07T04:02:29;34.00;;;31.30;;
22881;SDS011;11608;50.894;5.296;2023-05-07T04:04:55;31.63;;;29.23;;
22881;SDS011;11608;50.894;5.296;2023-05-07T04:07:21;31.08;;;28.77;;
22881;SDS011;11608;50.894;5.296;2023-05-07T04:09:48;31.98;;;29.52;;
22881;SDS011;11608;50.894;5.296;2023-05-07T04:12:23;32.53;;;30.02;;
22881;SDS011;11608;50.894;5.296;2023-05-07T04:14:49;32.60;;;30.00;;
22881;SDS011;11608;50.894;5.296;2023-05-07T04:17:15;31.98;;;29.48;;
22881;SDS011;11608;50.894;5.296;2023-05-07T04:19:44;31.83;;;29.42;;
22881;SDS011;11608;50.894;5.296;2023-05-07T04:22:10;32.22;;;29.63;;
22881;SDS011;11608;50.894;5.296;2023-05-07T04:24:37;32.33;;;29.73;;
22881;SDS011;11608;50.894;5.296;2023-05-07T04:27:10;31.35;;;29.05;;
22881;SDS011;11608;50.894;5.296;2023-05-07T04:29:39;32.88;;;30.27;;
22881;SDS011;11608;50.894;5.296;2023-05-07T04:32:07;31.65;;;29.25;;
22881;SDS011;11608;50.894;5.296;2023-05-07T04:34:34;33.08;;;30.48;;
22881;SDS011;11608;50.894;5.296;2023-05-07T04:37:00;32.10;;;29.73;;
22881;SDS011;11608;50.894;5.296;2023-05-07T04:39:26;32.90;;;30.35;;
22881;SDS011;11608;50.894;5.296;2023-05-07T04:41:52;32.72;;;30.13;;
22881;SDS011;11608;50.894;5.296;2023-05-07T04:44:18;33.10;;;30.58;;
22881;SDS011;11608;50.894;5.296;2023-05-07T04:46:44;33.25;;;30.52;;
22881;SDS011;11608;50.894;5.296;2023-05-07T04:49:11;34.50;;;31.90;;
22881;SDS011;11608;50.894;5.296;2023-05-07T04:51:39;33.40;;;30.88;;
22881;SDS011;11608;50.894;5.296;2023-05-07T04:54:08;33.10;;;30.27;;
22881;SDS011;11608;50.894;5.296;2023-05-07T04:56:36;33.22;;;30.67;;
22881;SDS011;11608;50.894;5.296;2023-05-07T04:59:05;34.30;;;31.60;;
22881;SDS011;11608;50.894;5.296;2023-05-07T05:01:31;32.95;;;30.45;;
22881;SDS011;11608;50.894;5.296;2023-05-07T05:03:57;33.45;;;30.85;;
22881;SDS011;11608;50.894;5.296;2023-05-07T05:06:25;33.58;;;30.98;;
22881;SDS011;11608;50.894;5.296;2023-05-07T05:08:51;33.78;;;31.15;;
22881;SDS011;11608;50.894;5.296;2023-05-07T05:11:17;33.05;;;30.48;;
22881;SDS011;11608;50.894;5.296;2023-05-07T05:13:50;33.83;;;31.27;;
22881;SDS011;11608;50.894;5.296;2023-05-07T05:16:16;33.25;;;30.75;;
22881;SDS011;11608;50.894;5.296;2023-05-07T05:18:42;34.90;;;32.13;;
22881;SDS011;11608;50.894;5.296;2023-05-07T05:21:09;33.42;;;30.83;;
22881;SDS011;11608;50.894;5.296;2023-05-07T05:23:42;34.03;;;31.35;;
22881;SDS011;11608;50.894;5.296;2023-05-07T05:26:08;34.15;;;31.48;;
22881;SDS011;11608;50.894;5.296;2023-05-07T05:28:44;33.72;;;31.20;;
22881;SDS011;11608;50.894;5.296;2023-05-07T05:31:13;34.10;;;31.10;;
22881;SDS011;11608;50.894;5.296;2023-05-07T05:33:39;33.85;;;31.23;;
22881;SDS011;11608;50.894;5.296;2023-05-07T05:36:14;33.10;;;30.50;;
22881;SDS011;11608;50.894;5.296;2023-05-07T05:38:43;33.50;;;30.80;;
22881;SDS011;11608;50.894;5.296;2023-05-07T05:41:11;33.75;;;30.67;;
22881;SDS011;11608;50.894;5.296;2023-05-07T05:43:37;34.38;;;31.48;;
22881;SDS011;11608;50.894;5.296;2023-05-07T05:46:06;33.83;;;30.98;;
22881;SDS011;11608;50.894;5.296;2023-05-07T05:48:33;33.08;;;30.48;;
22881;SDS011;11608;50.894;5.296;2023-05-07T05:51:00;33.58;;;30.88;;
22881;SDS011;11608;50.894;5.296;2023-05-07T05:53:26;32.95;;;30.15;;
22881;SDS011;11608;50.894;5.296;2023-05-07T05:55:52;32.10;;;29.42;;
22881;SDS011;11608;50.894;5.296;2023-05-07T05:58:18;32.53;;;30.02;;
22881;SDS011;11608;50.894;5.296;2023-05-07T06:00:44;32.38;;;29.70;;
22881;SDS011;11608;50.894;5.296;2023-05-07T06:03:10;32.90;;;30.00;;
22881;SDS011;11608;50.894;5.296;2023-05-07T06:05:36;31.75;;;29.25;;
22881;SDS011;11608;50.894;5.296;2023-05-07T06:08:02;33.00;;;30.40;;
22881;SDS011;11608;50.894;5.296;2023-05-07T06:10:28;32.08;;;29.50;;
22881;SDS011;11608;50.894;5.296;2023-05-07T06:12:55;32.30;;;29.67;;
22881;SDS011;11608;50.894;5.296;2023-05-07T06:15:21;30.50;;;27.88;;
22881;SDS011;11608;50.894;5.296;2023-05-07T06:17:47;33.33;;;30.48;;
22881;SDS011;11608;50.894;5.296;2023-05-07T06:20:14;32.30;;;29.77;;
22881;SDS011;11608;50.894;5.296;2023-05-07T06:22:40;32.75;;;29.85;;
22881;SDS011;11608;50.894;5.296;2023-05-07T06:25:06;32.55;;;29.83;;
22881;SDS011;11608;50.894;5.296;2023-05-07T06:27:32;31.48;;;29.08;;
22881;SDS011;11608;50.894;5.296;2023-05-07T06:29:58;31.05;;;28.63;;
22881;SDS011;11608;50.894;5.296;2023-05-07T06:32:25;31.70;;;29.20;;
22881;SDS011;11608;50.894;5.296;2023-05-07T06:34:51;31.13;;;28.48;;
22881;SDS011;11608;50.894;5.296;2023-05-07T06:37:17;30.52;;;27.92;;
22881;SDS011;11608;50.894;5.296;2023-05-07T06:39:43;30.92;;;28.45;;
22881;SDS011;11608;50.894;5.296;2023-05-07T06:42:09;29.88;;;27.35;;
22881;SDS011;11608;50.894;5.296;2023-05-07T06:44:35;29.17;;;26.95;;
22881;SDS011;11608;50.894;5.296;2023-05-07T06:47:01;29.27;;;27.05;;
22881;SDS011;11608;50.894;5.296;2023-05-07T06:49:27;29.88;;;27.55;;
22881;SDS011;11608;50.894;5.296;2023-05-07T06:51:53;30.70;;;28.33;;
22881;SDS011;11608;50.894;5.296;2023-05-07T06:54:20;29.80;;;27.48;;
22881;SDS011;11608;50.894;5.296;2023-05-07T06:56:46;29.88;;;27.58;;
22881;SDS011;11608;50.894;5.296;2023-05-07T06:59:12;31.17;;;28.73;;
22881;SDS011;11608;50.894;5.296;2023-05-07T07:01:38;30.67;;;28.15;;
22881;SDS011;11608;50.894;5.296;2023-05-07T07:04:05;29.58;;;27.00;;
22881;SDS011;11608;50.894;5.296;2023-05-07T07:06:31;29.17;;;26.85;;
22881;SDS011;11608;50.894;5.296;2023-05-07T07:08:57;29.70;;;27.27;;
22881;SDS011;11608;50.894;5.296;2023-05-07T07:11:23;28.75;;;26.65;;
22881;SDS011;11608;50.894;5.296;2023-05-07T07:13:56;29.10;;;27.00;;
22881;SDS011;11608;50.894;5.296;2023-05-07T07:16:22;27.80;;;25.90;;
22881;SDS011;11608;50.894;5.296;2023-05-07T07:18:48;28.40;;;26.10;;
22881;SDS011;11608;50.894;5.296;2023-05-07T07:21:14;28.55;;;26.33;;
22881;SDS011;11608;50.894;5.296;2023-05-07T07:23:40;28.30;;;26.23;;
22881;SDS011;11608;50.894;5.296;2023-05-07T07:26:06;27.30;;;24.98;;
22881;SDS011;11608;50.894;5.296;2023-05-07T07:28:32;26.95;;;24.95;;
22881;SDS011;11608;50.894;5.296;2023-05-07T07:30:58;26.67;;;24.60;;
22881;SDS011;11608;50.894;5.296;2023-05-07T07:33:24;26.98;;;24.77;;
22881;SDS011;11608;50.894;5.296;2023-05-07T07:35:50;27.20;;;25.20;;
22881;SDS011;11608;50.894;5.296;2023-05-07T07:38:16;26.85;;;24.75;;
22881;SDS011;11608;50.894;5.296;2023-05-07T07:40:42;27.92;;;25.63;;
22881;SDS011;11608;50.894;5.296;2023-05-07T07:43:09;26.92;;;24.92;;
22881;SDS011;11608;50.894;5.296;2023-05-07T07:45:35;26.52;;;24.48;;
22881;SDS011;11608;50.894;5.296;2023-05-07T07:48:01;27.15;;;25.02;;
22881;SDS011;11608;50.894;5.296;2023-05-07T07:50:27;26.13;;;24.23;;
22881;SDS011;11608;50.894;5.296;2023-05-07T07:52:53;26.27;;;24.17;;
22881;SDS011;11608;50.894;5.296;2023-05-07T07:55:19;25.75;;;23.83;;
22881;SDS011;11608;50.894;5.296;2023-05-07T07:57:48;25.85;;;23.75;;
22881;SDS011;11608;50.894;5.296;2023-05-07T08:00:15;26.58;;;24.25;;
22881;SDS011;11608;50.894;5.296;2023-05-07T08:02:41;26.00;;;23.70;;
22881;SDS011;11608;50.894;5.296;2023-05-07T08:05:07;24.98;;;23.17;;
22881;SDS011;11608;50.894;5.296;2023-05-07T08:07:33;24.63;;;22.70;;
22881;SDS011;11608;50.894;5.296;2023-05-07T08:09:59;25.15;;;23.00;;
22881;SDS011;11608;50.894;5.296;2023-05-07T08:12:25;25.52;;;23.63;;
22881;SDS011;11608;50.894;5.296;2023-05-07T08:14:51;25.42;;;23.40;;
22881;SDS011;11608;50.894;5.296;2023-05-07T08:17:17;24.38;;;22.48;;
22881;SDS011;11608;50.894;5.296;2023-05-07T08:19:43;25.08;;;23.20;;
22881;SDS011;11608;50.894;5.296;2023-05-07T08:22:10;23.08;;;21.38;;
22881;SDS011;11608;50.894;5.296;2023-05-07T08:24:36;24.00;;;22.30;;
22881;SDS011;11608;50.894;5.296;2023-05-07T08:27:02;24.55;;;22.70;;
22881;SDS011;11608;50.894;5.296;2023-05-07T08:29:28;22.98;;;21.17;;
22881;SDS011;11608;50.894;5.296;2023-05-07T08:31:54;23.48;;;21.80;;
22881;SDS011;11608;50.894;5.296;2023-05-07T08:34:21;24.05;;;22.15;;
22881;SDS011;11608;50.894;5.296;2023-05-07T08:36:47;24.38;;;22.35;;
22881;SDS011;11608;50.894;5.296;2023-05-07T08:39:14;24.25;;;22.25;;
22881;SDS011;11608;50.894;5.296;2023-05-07T08:41:43;23.73;;;21.63;;
22881;SDS011;11608;50.894;5.296;2023-05-07T08:44:11;24.58;;;22.67;;
22881;SDS011;11608;50.894;5.296;2023-05-07T08:46:39;23.58;;;21.77;;
22881;SDS011;11608;50.894;5.296;2023-05-07T08:49:05;23.88;;;21.98;;
22881;SDS011;11608;50.894;5.296;2023-05-07T08:51:31;24.75;;;22.88;;
22881;SDS011;11608;50.894;5.296;2023-05-07T08:53:57;25.40;;;23.55;;
22881;SDS011;11608;50.894;5.296;2023-05-07T08:56:23;26.33;;;24.08;;
22881;SDS011;11608;50.894;5.296;2023-05-07T08:58:50;25.20;;;23.15;;
22881;SDS011;11608;50.894;5.296;2023-05-07T09:01:16;24.50;;;22.70;;
22881;SDS011;11608;50.894;5.296;2023-05-07T09:03:46;25.00;;;22.80;;
22881;SDS011;11608;50.894;5.296;2023-05-07T09:06:12;23.95;;;22.05;;
22881;SDS011;11608;50.894;5.296;2023-05-07T09:08:38;25.85;;;23.63;;
22881;SDS011;11608;50.894;5.296;2023-05-07T09:11:04;25.45;;;23.45;;
22881;SDS011;11608;50.894;5.296;2023-05-07T09:13:30;25.77;;;23.60;;
22881;SDS011;11608;50.894;5.296;2023-05-07T09:15:56;26.00;;;23.73;;
22881;SDS011;11608;50.894;5.296;2023-05-07T09:18:25;26.08;;;23.95;;
22881;SDS011;11608;50.894;5.296;2023-05-07T09:20:51;25.17;;;23.38;;
22881;SDS011;11608;50.894;5.296;2023-05-07T09:23:17;26.35;;;24.35;;
22881;SDS011;11608;50.894;5.296;2023-05-07T09:25:43;25.73;;;23.60;;
22881;SDS011;11608;50.894;5.296;2023-05-07T09:28:10;24.98;;;23.17;;
22881;SDS011;11608;50.894;5.296;2023-05-07T09:30:36;25.35;;;23.38;;
22881;SDS011;11608;50.894;5.296;2023-05-07T09:33:03;24.50;;;22.63;;
22881;SDS011;11608;50.894;5.296;2023-05-07T09:35:29;24.23;;;22.30;;
22881;SDS011;11608;50.894;5.296;2023-05-07T09:37:56;24.13;;;22.30;;
22881;SDS011;11608;50.894;5.296;2023-05-07T09:40:23;24.08;;;22.17;;
22881;SDS011;11608;50.894;5.296;2023-05-07T09:42:49;23.15;;;21.40;;
22881;SDS011;11608;50.894;5.296;2023-05-07T09:45:16;24.17;;;21.85;;
22881;SDS011;11608;50.894;5.296;2023-05-07T09:47:42;23.77;;;21.70;;
22881;SDS011;11608;50.894;5.296;2023-05-07T09:50:12;23.80;;;21.95;;
22881;SDS011;11608;50.894;5.296;2023-05-07T09:52:38;23.55;;;21.63;;
22881;SDS011;11608;50.894;5.296;2023-05-07T09:55:05;23.48;;;21.52;;
22881;SDS011;11608;50.894;5.296;2023-05-07T09:57:31;24.85;;;22.77;;
22881;SDS011;11608;50.894;5.296;2023-05-07T09:59:58;22.67;;;21.10;;
22881;SDS011;11608;50.894;5.296;2023-05-07T10:02:25;23.13;;;21.25;;
22881;SDS011;11608;50.894;5.296;2023-05-07T10:04:53;23.60;;;21.60;;
22881;SDS011;11608;50.894;5.296;2023-05-07T10:07:20;23.38;;;21.25;;
22881;SDS011;11608;50.894;5.296;2023-05-07T10:09:46;23.38;;;21.52;;
22881;SDS011;11608;50.894;5.296;2023-05-07T10:12:12;24.63;;;22.67;;
22881;SDS011;11608;50.894;5.296;2023-05-07T10:14:38;24.20;;;22.30;;
22881;SDS011;11608;50.894;5.296;2023-05-07T10:17:05;24.58;;;22.55;;
22881;SDS011;11608;50.894;5.296;2023-05-07T10:19:31;24.00;;;22.10;;
22881;SDS011;11608;50.894;5.296;2023-05-07T10:22:02;24.13;;;22.02;;
22881;SDS011;11608;50.894;5.296;2023-05-07T10:24:33;24.33;;;22.23;;
22881;SDS011;11608;50.894;5.296;2023-05-07T10:27:00;23.63;;;21.60;;
22881;SDS011;11608;50.894;5.296;2023-05-07T10:34:44;24.50;;;22.52;;
22881;SDS011;11608;50.894;5.296;2023-05-07T10:37:09;24.33;;;22.40;;
22881;SDS011;11608;50.894;5.296;2023-05-07T10:39:35;23.67;;;21.88;;
22881;SDS011;11608;50.894;5.296;2023-05-07T10:42:12;25.27;;;23.05;;
22881;SDS011;11608;50.894;5.296;2023-05-07T10:44:39;25.17;;;23.02;;
22881;SDS011;11608;50.894;5.296;2023-05-07T10:49:31;25.08;;;22.95;;
22881;SDS011;11608;50.894;5.296;2023-05-07T10:52:13;24.90;;;22.50;;
22881;SDS011;11608;50.894;5.296;2023-05-07T10:54:41;23.83;;;22.02;;
22881;SDS011;11608;50.894;5.296;2023-05-07T10:59:51;24.80;;;22.75;;
22881;SDS011;11608;50.894;5.296;2023-05-07T11:02:18;25.27;;;23.23;;
22881;SDS011;11608;50.894;5.296;2023-05-07T11:04:44;24.75;;;22.70;;
22881;SDS011;11608;50.894;5.296;2023-05-07T11:17:32;26.15;;;24.05;;
22881;SDS011;11608;50.894;5.296;2023-05-07T11:19:59;27.10;;;24.80;;
22881;SDS011;11608;50.894;5.296;2023-05-07T11:25:04;24.90;;;22.67;;
22881;SDS011;11608;50.894;5.296;2023-05-07T11:27:30;24.90;;;22.80;;
22881;SDS011;11608;50.894;5.296;2023-05-07T11:29:56;26.02;;;23.60;;
22881;SDS011;11608;50.894;5.296;2023-05-07T11:32:23;25.58;;;23.42;;
22881;SDS011;11608;50.894;5.296;2023-05-07T11:34:52;26.73;;;24.42;;
22881;SDS011;11608;50.894;5.296;2023-05-07T11:37:19;26.83;;;24.55;;
22881;SDS011;11608;50.894;5.296;2023-05-07T11:39:45;26.17;;;23.80;;
22881;SDS011;11608;50.894;5.296;2023-05-07T11:45:10;25.25;;;23.35;;
22881;SDS011;11608;50.894;5.296;2023-05-07T11:47:36;24.50;;;22.75;;
22881;SDS011;11608;50.894;5.296;2023-05-07T11:50:03;24.75;;;22.80;;
22881;SDS011;11608;50.894;5.296;2023-05-07T11:52:30;24.63;;;22.52;;
22881;SDS011;11608;50.894;5.296;2023-05-07T11:54:57;25.88;;;23.73;;
22881;SDS011;11608;50.894;5.296;2023-05-07T11:57:24;26.38;;;24.20;;
22881;SDS011;11608;50.894;5.296;2023-05-07T11:59:57;27.02;;;24.42;;
22881;SDS011;11608;50.894;5.296;2023-05-07T12:02:23;26.90;;;24.60;;
22881;SDS011;11608;50.894;5.296;2023-05-07T12:04:50;28.33;;;26.02;;
22881;SDS011;11608;50.894;5.296;2023-05-07T12:07:16;27.92;;;25.52;;
22881;SDS011;11608;50.894;5.296;2023-05-07T12:09:43;27.30;;;25.13;;
22881;SDS011;11608;50.894;5.296;2023-05-07T12:12:10;27.80;;;25.42;;
22881;SDS011;11608;50.894;5.296;2023-05-07T12:14:39;27.48;;;25.38;;
22881;SDS011;11608;50.894;5.296;2023-05-07T12:17:05;28.17;;;25.50;;
22881;SDS011;11608;50.894;5.296;2023-05-07T12:19:33;27.95;;;25.67;;
22881;SDS011;11608;50.894;5.296;2023-05-07T12:21:59;27.80;;;25.60;;
22881;SDS011;11608;50.894;5.296;2023-05-07T12:24:25;27.48;;;25.27;;
22881;SDS011;11608;50.894;5.296;2023-05-07T12:26:52;26.30;;;24.30;;
22881;SDS011;11608;50.894;5.296;2023-05-07T12:29:21;26.45;;;24.55;;
22881;SDS011;11608;50.894;5.296;2023-05-07T12:31:47;28.60;;;26.13;;
22881;SDS011;11608;50.894;5.296;2023-05-07T12:34:15;28.35;;;26.02;;
22881;SDS011;11608;50.894;5.296;2023-05-07T12:36:41;27.85;;;25.52;;
22881;SDS011;11608;50.894;5.296;2023-05-07T12:39:07;27.73;;;25.13;;
22881;SDS011;11608;50.894;5.296;2023-05-07T12:44:21;28.95;;;26.55;;
22881;SDS011;11608;50.894;5.296;2023-05-07T12:46:47;28.55;;;26.23;;
22881;SDS011;11608;50.894;5.296;2023-05-07T12:49:13;28.42;;;26.02;;
22881;SDS011;11608;50.894;5.296;2023-05-07T12:51:39;25.70;;;23.67;;
22881;SDS011;11608;50.894;5.296;2023-05-07T12:54:05;24.85;;;22.95;;
22881;SDS011;11608;50.894;5.296;2023-05-07T12:56:31;25.83;;;23.85;;
22881;SDS011;11608;50.894;5.296;2023-05-07T12:58:57;26.15;;;24.05;;
22881;SDS011;11608;50.894;5.296;2023-05-07T13:01:28;25.70;;;23.70;;
22881;SDS011;11608;50.894;5.296;2023-05-07T13:03:54;25.45;;;23.42;;
22881;SDS011;11608;50.894;5.296;2023-05-07T13:06:20;23.88;;;22.05;;
22881;SDS011;11608;50.894;5.296;2023-05-07T13:08:46;23.92;;;21.83;;
22881;SDS011;11608;50.894;5.296;2023-05-07T13:11:12;24.42;;;22.45;;
22881;SDS011;11608;50.894;5.296;2023-05-07T13:13:39;23.50;;;21.70;;
22881;SDS011;11608;50.894;5.296;2023-05-07T13:16:07;23.58;;;21.77;;
22881;SDS011;11608;50.894;5.296;2023-05-07T13:18:33;23.17;;;21.35;;
22881;SDS011;11608;50.894;5.296;2023-05-07T13:21:00;24.38;;;22.52;;
22881;SDS011;11608;50.894;5.296;2023-05-07T13:23:27;25.73;;;23.58;;
22881;SDS011;11608;50.894;5.296;2023-05-07T13:25:53;24.55;;;22.65;;
22881;SDS011;11608;50.894;5.296;2023-05-07T13:28:19;25.83;;;23.52;;
22881;SDS011;11608;50.894;5.296;2023-05-07T13:30:45;26.25;;;24.00;;
22881;SDS011;11608;50.894;5.296;2023-05-07T13:33:11;25.95;;;24.05;;
22881;SDS011;11608;50.894;5.296;2023-05-07T13:35:38;26.15;;;23.98;;
22881;SDS011;11608;50.894;5.296;2023-05-07T13:38:04;26.13;;;24.13;;
22881;SDS011;11608;50.894;5.296;2023-05-07T13:40:30;24.67;;;22.58;;
22881;SDS011;11608;50.894;5.296;2023-05-07T13:42:57;25.02;;;23.10;;
22881;SDS011;11608;50.894;5.296;2023-05-07T13:45:24;24.95;;;23.05;;
22881;SDS011;11608;50.894;5.296;2023-05-07T13:47:51;25.38;;;23.38;;
22881;SDS011;11608;50.894;5.296;2023-05-07T13:50:17;25.13;;;23.35;;
22881;SDS011;11608;50.894;5.296;2023-05-07T13:52:43;25.42;;;23.58;;
22881;SDS011;11608;50.894;5.296;2023-05-07T13:55:19;24.80;;;22.80;;
22881;SDS011;11608;50.894;5.296;2023-05-07T13:57:46;23.88;;;21.80;;
22881;SDS011;11608;50.894;5.296;2023-05-07T14:00:12;25.75;;;23.75;;
22881;SDS011;11608;50.894;5.296;2023-05-07T14:02:39;25.55;;;23.40;;
22881;SDS011;11608;50.894;5.296;2023-05-07T14:05:05;25.88;;;23.88;;
22881;SDS011;11608;50.894;5.296;2023-05-07T14:07:31;26.60;;;24.42;;
22881;SDS011;11608;50.894;5.296;2023-05-07T14:09:58;27.00;;;24.85;;
22881;SDS011;11608;50.894;5.296;2023-05-07T14:12:24;26.55;;;24.55;;
22881;SDS011;11608;50.894;5.296;2023-05-07T14:14:50;27.38;;;25.17;;
22881;SDS011;11608;50.894;5.296;2023-05-07T14:17:16;26.58;;;24.55;;
22881;SDS011;11608;50.894;5.296;2023-05-07T14:19:43;27.08;;;24.83;;
22881;SDS011;11608;50.894;5.296;2023-05-07T14:22:09;26.85;;;24.63;;
22881;SDS011;11608;50.894;5.296;2023-05-07T14:24:35;25.15;;;23.10;;
22881;SDS011;11608;50.894;5.296;2023-05-07T14:27:01;25.00;;;23.08;;
22881;SDS011;11608;50.894;5.296;2023-05-07T14:29:27;24.20;;;22.20;;
22881;SDS011;11608;50.894;5.296;2023-05-07T14:31:53;23.35;;;21.55;;
22881;SDS011;11608;50.894;5.296;2023-05-07T14:34:19;23.77;;;22.00;;
22881;SDS011;11608;50.894;5.296;2023-05-07T14:36:46;24.40;;;22.50;;
22881;SDS011;11608;50.894;5.296;2023-05-07T14:39:12;24.88;;;22.83;;
22881;SDS011;11608;50.894;5.296;2023-05-07T14:41:38;24.67;;;22.63;;
22881;SDS011;11608;50.894;5.296;2023-05-07T14:44:04;25.17;;;23.10;;
22881;SDS011;11608;50.894;5.296;2023-05-07T14:46:30;23.67;;;21.92;;